Shear Water — WDB2424 — position and weather

sailwx.info

Track history (hours):
 
Tides and Currents Weather Stations Pressure Air Temp Water Temp Dewpoint Dewpoint Depression Visibility Wind Speed Wind Dir Waves Ship Positions

Shear Water

Owner: N.O.A.A., santa barbara, CA. More information available from US FCC via Universal Licensing System and Coast Guard Vessel Documentation Center.

Last reported at 2017-Sep-19 00:06 UTC. Time now 2017-Sep-24 14:10 UTC.
Position N 34°24' W 119°41'.

Length 20 m.

MMSI: 366875820.

Date/timePositionNaut miles runAvg speedWind from/ knotsBaromVisibWave heightAir tempDewpointWater temp
2017-Sep-19 00:06N 34°24' W 119°41'1 7.9
2017-Sep-19 00:00N 34°24' W 119°41'816.7
2017-Sep-18 23:30N 34°15' W 119°40'816.4
2017-Sep-18 23:00N 34°07' W 119°41'6 2.6
2017-Sep-18 20:45N 34°01' W 119°41'0 0.0
2017-Sep-18 17:24N 34°01' W 119°41'2 5.4
2017-Sep-18 17:00N 34°03' W 119°40'712.9
2017-Sep-18 16:30N 34°10' W 119°42'816.5
2017-Sep-18 16:00N 34°18' W 119°41'612.5
2017-Sep-18 15:30N 34°24' W 119°41'0 0.0
2017-Sep-16 22:25N 34°24' W 119°41'0 0.4
2017-Sep-16 22:00N 34°24' W 119°42'0 0.0
2017-Sep-16 21:30N 34°24' W 119°42'0 0.2
2017-Sep-16 20:59N 34°24' W 119°42'713.9
2017-Sep-16 20:29N 34°18' W 119°38'817.0
2017-Sep-16 20:00N 34°10' W 119°35'817.0
2017-Sep-16 19:30N 34°02' W 119°31'2 0.5
2017-Sep-16 15:57N 34°01' W 119°32'511.7
2017-Sep-16 15:29N 34°06' W 119°32'817.1
2017-Sep-16 15:00N 34°14' W 119°36'917.1
2017-Sep-16 14:30N 34°22' W 119°39'3 6.1
2017-Sep-16 14:00N 34°24' W 119°41'  
2017-Sep-13 20:37N 34°24' W 119°41'0 0.0
2017-Sep-13 20:30N 34°24' W 119°41'0 0.3
2017-Sep-13 20:01N 34°25' W 119°41'3 6.1
2017-Sep-13 19:30N 34°23' W 119°45'5 9.4
2017-Sep-13 19:00N 34°24' W 119°50'3 5.3
2017-Sep-13 18:29N 34°21' W 119°51'3 6.0
2017-Sep-13 18:00N 34°19' W 119°54'3 5.6
2017-Sep-13 17:30N 34°16' W 119°54'3 6.8
2017-Sep-13 17:00N 34°13' W 119°55'3 5.9
2017-Sep-13 16:25N 34°09' W 119°57'3 7.0
2017-Sep-13 15:59N 34°07' W 119°59'3 5.8
2017-Sep-13 15:30N 34°05' W 120°01'713.3
2017-Sep-13 15:01N 34°10' W 119°56'917.3
2017-Sep-13 14:30N 34°16' W 119°49'916.9
2017-Sep-13 13:59N 34°23' W 119°42'1 2.8
2017-Sep-13 13:29N 34°24' W 119°41'  
2017-Sep-09 20:28N 34°24' W 119°41'2 4.0
2017-Sep-09 20:00N 34°23' W 119°40'613.1
2017-Sep-09 19:30N 34°17' W 119°38'918.1
2017-Sep-09 19:00N 34°08' W 119°35'5 9.6
2017-Sep-09 18:28N 34°03' W 119°33'0 0.0
2017-Sep-09 18:00N 34°03' W 119°33'0 0.9
2017-Sep-09 17:28N 34°03' W 119°33'1 1.8
2017-Sep-09 16:59N 34°04' W 119°32'1 1.9
2017-Sep-09 16:30N 34°04' W 119°31'1 2.7
2017-Sep-09 15:59N 34°04' W 119°29'1 2.3
2017-Sep-09 15:28N 34°04' W 119°28'1 2.5
2017-Sep-09 15:00N 34°05' W 119°27'2 2.9
2017-Sep-09 14:27N 34°05' W 119°25'1 2.5
2017-Sep-09 14:00N 34°06' W 119°24'1 2.5
2017-Sep-09 13:28N 34°07' W 119°22'1 2.3
2017-Sep-09 13:00N 34°07' W 119°21'1 2.1
2017-Sep-09 12:30N 34°07' W 119°20'1 2.5
2017-Sep-09 12:00N 34°08' W 119°19'1 2.3
2017-Sep-09 11:30N 34°08' W 119°17'1 2.4
2017-Sep-09 11:00N 34°08' W 119°16'1 2.5
2017-Sep-09 10:29N 34°09' W 119°14'1 2.5
2017-Sep-09 10:00N 34°10' W 119°13'0 0.3
2017-Sep-09 09:30N 34°10' W 119°14'0 0.0
2017-Sep-09 09:00N 34°10' W 119°14'  
Track history (hours):
 
Tides and Currents Weather Stations Pressure Air Temp Water Temp Dewpoint Dewpoint Depression Visibility Wind Speed Wind Dir Waves Ship Positions

Shear Water

Owner: N.O.A.A., santa barbara, CA. More information available from US FCC via Universal Licensing System and Coast Guard Vessel Documentation Center.

Last reported at 2017-Sep-19 00:06 UTC. Time now 2017-Sep-24 14:10 UTC.
Position N 34°24' W 119°41'.

Length 20 m.

MMSI: 366875820.

Date/timePositionNaut miles runAvg speedWind from/ knotsBaromVisibWave heightAir tempDewpointWater temp
2017-Sep-19 00:06N 34°24' W 119°41'1 7.9
2017-Sep-19 00:00N 34°24' W 119°41'816.7
2017-Sep-18 23:30N 34°15' W 119°40'816.4
2017-Sep-18 23:00N 34°07' W 119°41'6 2.6
2017-Sep-18 20:45N 34°01' W 119°41'0 0.0
2017-Sep-18 17:24N 34°01' W 119°41'2 5.4
2017-Sep-18 17:00N 34°03' W 119°40'712.9
2017-Sep-18 16:30N 34°10' W 119°42'816.5
2017-Sep-18 16:00N 34°18' W 119°41'612.5
2017-Sep-18 15:30N 34°24' W 119°41'0 0.0
2017-Sep-16 22:25N 34°24' W 119°41'0 0.4
2017-Sep-16 22:00N 34°24' W 119°42'0 0.0
2017-Sep-16 21:30N 34°24' W 119°42'0 0.2
2017-Sep-16 20:59N 34°24' W 119°42'713.9
2017-Sep-16 20:29N 34°18' W 119°38'817.0
2017-Sep-16 20:00N 34°10' W 119°35'817.0
2017-Sep-16 19:30N 34°02' W 119°31'2 0.5
2017-Sep-16 15:57N 34°01' W 119°32'511.7
2017-Sep-16 15:29N 34°06' W 119°32'817.1
2017-Sep-16 15:00N 34°14' W 119°36'917.1
2017-Sep-16 14:30N 34°22' W 119°39'3 6.1
2017-Sep-16 14:00N 34°24' W 119°41'  
2017-Sep-13 20:37N 34°24' W 119°41'0 0.0
2017-Sep-13 20:30N 34°24' W 119°41'0 0.3
2017-Sep-13 20:01N 34°25' W 119°41'3 6.1
2017-Sep-13 19:30N 34°23' W 119°45'5 9.4
2017-Sep-13 19:00N 34°24' W 119°50'3 5.3
2017-Sep-13 18:29N 34°21' W 119°51'3 6.0
2017-Sep-13 18:00N 34°19' W 119°54'3 5.6
2017-Sep-13 17:30N 34°16' W 119°54'3 6.8
2017-Sep-13 17:00N 34°13' W 119°55'3 5.9
2017-Sep-13 16:25N 34°09' W 119°57'3 7.0
2017-Sep-13 15:59N 34°07' W 119°59'3 5.8
2017-Sep-13 15:30N 34°05' W 120°01'713.3
2017-Sep-13 15:01N 34°10' W 119°56'917.3
2017-Sep-13 14:30N 34°16' W 119°49'916.9
2017-Sep-13 13:59N 34°23' W 119°42'1 2.8
2017-Sep-13 13:29N 34°24' W 119°41'  
2017-Sep-09 20:28N 34°24' W 119°41'2 4.0
2017-Sep-09 20:00N 34°23' W 119°40'613.1
2017-Sep-09 19:30N 34°17' W 119°38'918.1
2017-Sep-09 19:00N 34°08' W 119°35'5 9.6
2017-Sep-09 18:28N 34°03' W 119°33'0 0.0
2017-Sep-09 18:00N 34°03' W 119°33'0 0.9
2017-Sep-09 17:28N 34°03' W 119°33'1 1.8
2017-Sep-09 16:59N 34°04' W 119°32'1 1.9
2017-Sep-09 16:30N 34°04' W 119°31'1 2.7
2017-Sep-09 15:59N 34°04' W 119°29'1 2.3
2017-Sep-09 15:28N 34°04' W 119°28'1 2.5
2017-Sep-09 15:00N 34°05' W 119°27'2 2.9
2017-Sep-09 14:27N 34°05' W 119°25'1 2.5
2017-Sep-09 14:00N 34°06' W 119°24'1 2.5
2017-Sep-09 13:28N 34°07' W 119°22'1 2.3
2017-Sep-09 13:00N 34°07' W 119°21'1 2.1
2017-Sep-09 12:30N 34°07' W 119°20'1 2.5
2017-Sep-09 12:00N 34°08' W 119°19'1 2.3
2017-Sep-09 11:30N 34°08' W 119°17'1 2.4
2017-Sep-09 11:00N 34°08' W 119°16'1 2.5
2017-Sep-09 10:29N 34°09' W 119°14'1 2.5
2017-Sep-09 10:00N 34°10' W 119°13'0 0.3
2017-Sep-09 09:30N 34°10' W 119°14'0 0.0
2017-Sep-09 09:00N 34°10' W 119°14'  

Dump ship's entire track history